sensor_id;sensor_type;location;lat;lon;timestamp;pressure;altitude;pressure_sealevel;temperature;humidity
12486;BME280;6307;46.804;11.580;2023-01-23T00:01:27;-20985.16;;;4.43;35.76
12486;BME280;6307;46.804;11.580;2023-01-23T00:03:54;-20969.03;;;3.90;36.97
12486;BME280;6307;46.804;11.580;2023-01-23T00:06:22;-20987.28;;;4.50;36.18
12486;BME280;6307;46.804;11.580;2023-01-23T00:08:49;-20958.81;;;3.56;36.85
12486;BME280;6307;46.804;11.580;2023-01-23T00:11:20;-20959.69;;;3.59;37.41
12486;BME280;6307;46.804;11.580;2023-01-23T00:13:48;-20959.84;;;3.59;37.14
12486;BME280;6307;46.804;11.580;2023-01-23T00:16:17;-20964.81;;;3.76;37.50
12486;BME280;6307;46.804;11.580;2023-01-23T00:18:45;-20957.75;;;3.52;37.52
12486;BME280;6307;46.804;11.580;2023-01-23T00:21:20;-20976.59;;;4.15;37.58
12486;BME280;6307;46.804;11.580;2023-01-23T00:23:54;-20973.72;;;4.05;37.55
12486;BME280;6307;46.804;11.580;2023-01-23T00:26:27;-20943.56;;;3.05;38.11
12486;BME280;6307;46.804;11.580;2023-01-23T00:28:56;-20940.72;;;2.96;37.66
12486;BME280;6307;46.804;11.580;2023-01-23T00:31:29;-20950.06;;;3.27;37.99
12486;BME280;6307;46.804;11.580;2023-01-23T00:34:00;-20958.66;;;3.55;37.07
12486;BME280;6307;46.804;11.580;2023-01-23T00:36:34;-20958.03;;;3.53;37.41
12486;BME280;6307;46.804;11.580;2023-01-23T00:39:03;-20980.81;;;4.29;36.28
12486;BME280;6307;46.804;11.580;2023-01-23T00:41:32;-20988.31;;;4.54;36.50
12486;BME280;6307;46.804;11.580;2023-01-23T00:43:58;-20972.22;;;4.00;36.84
12486;BME280;6307;46.804;11.580;2023-01-23T00:46:24;-20975.06;;;4.10;36.89
12486;BME280;6307;46.804;11.580;2023-01-23T00:48:51;-20992.84;;;4.69;36.14
12486;BME280;6307;46.804;11.580;2023-01-23T00:51:17;-20988.03;;;4.53;36.42
12486;BME280;6307;46.804;11.580;2023-01-23T00:53:43;-20984.25;;;4.40;35.85
12486;BME280;6307;46.804;11.580;2023-01-23T00:56:10;-20966.94;;;3.83;37.04
12486;BME280;6307;46.804;11.580;2023-01-23T00:58:36;-20990.28;;;4.60;35.79
12486;BME280;6307;46.804;11.580;2023-01-23T01:01:04;-20981.09;;;4.30;36.37
12486;BME280;6307;46.804;11.580;2023-01-23T01:03:30;-20991.03;;;4.63;35.89
12486;BME280;6307;46.804;11.580;2023-01-23T01:05:57;-20973.13;;;4.03;36.93
12486;BME280;6307;46.804;11.580;2023-01-23T01:08:23;-20979.28;;;4.24;36.88
12486;BME280;6307;46.804;11.580;2023-01-23T01:10:49;-20991.78;;;4.65;35.93
12486;BME280;6307;46.804;11.580;2023-01-23T01:13:15;-20989.22;;;4.57;35.46
12486;BME280;6307;46.804;11.580;2023-01-23T01:15:48;-20976.88;;;4.16;36.27
12486;BME280;6307;46.804;11.580;2023-01-23T01:18:16;-20966.34;;;3.81;36.86
12486;BME280;6307;46.804;11.580;2023-01-23T01:20:43;-20972.34;;;4.01;36.51
12486;BME280;6307;46.804;11.580;2023-01-23T01:23:10;-20968.91;;;3.89;36.22
12486;BME280;6307;46.804;11.580;2023-01-23T01:25:37;-20966.63;;;3.82;37.01
12486;BME280;6307;46.804;11.580;2023-01-23T01:28:04;-20961.50;;;3.65;36.20
12486;BME280;6307;46.804;11.580;2023-01-23T01:30:31;-20988.94;;;4.56;36.16
12486;BME280;6307;46.804;11.580;2023-01-23T01:32:57;-20950.06;;;3.27;37.79
12486;BME280;6307;46.804;11.580;2023-01-23T01:35:23;-20962.72;;;3.69;37.28
12486;BME280;6307;46.804;11.580;2023-01-23T01:37:49;-20948.56;;;3.22;37.55
12486;BME280;6307;46.804;11.580;2023-01-23T01:40:23;-20971.75;;;3.99;36.98
12486;BME280;6307;46.804;11.580;2023-01-23T01:42:58;-20948.09;;;3.20;37.94
12486;BME280;6307;46.804;11.580;2023-01-23T01:51:26;-20966.34;;;3.81;36.87
12486;BME280;6307;46.804;11.580;2023-01-23T01:59:29;-20962.13;;;3.67;37.48
12486;BME280;6307;46.804;11.580;2023-01-23T02:02:12;-20971.31;;;3.97;36.61
12486;BME280;6307;46.804;11.580;2023-01-23T02:04:49;-20976.72;;;4.15;36.44
12486;BME280;6307;46.804;11.580;2023-01-23T02:07:42;-20971.59;;;3.98;37.18
12486;BME280;6307;46.804;11.580;2023-01-23T02:10:25;-20958.03;;;3.53;36.73
12486;BME280;6307;46.804;11.580;2023-01-23T02:12:51;-20966.50;;;3.81;36.54
12486;BME280;6307;46.804;11.580;2023-01-23T02:15:20;-20979.91;;;4.26;36.54
12486;BME280;6307;46.804;11.580;2023-01-23T02:17:49;-20946.75;;;3.16;37.85
12486;BME280;6307;46.804;11.580;2023-01-23T02:20:26;-20972.66;;;4.02;36.92
12486;BME280;6307;46.804;11.580;2023-01-23T02:25:56;-20988.03;;;4.53;35.74
12486;BME280;6307;46.804;11.580;2023-01-23T02:28:35;-20971.91;;;3.99;36.49
12486;BME280;6307;46.804;11.580;2023-01-23T02:31:02;-20979.00;;;4.23;36.03
12486;BME280;6307;46.804;11.580;2023-01-23T02:35:54;-20978.25;;;4.20;36.13
12486;BME280;6307;46.804;11.580;2023-01-23T02:38:25;-20965.59;;;3.78;36.61
12486;BME280;6307;46.804;11.580;2023-01-23T02:40:56;-20971.75;;;3.99;36.52
12486;BME280;6307;46.804;11.580;2023-01-23T02:43:30;-20964.97;;;3.76;36.77
12486;BME280;6307;46.804;11.580;2023-01-23T02:46:06;-20967.25;;;3.84;36.04
12486;BME280;6307;46.804;11.580;2023-01-23T02:48:36;-20975.38;;;4.11;36.38
12486;BME280;6307;46.804;11.580;2023-01-23T02:51:04;-20960.31;;;3.61;36.96
12486;BME280;6307;46.804;11.580;2023-01-23T02:53:31;-20981.56;;;4.31;36.13
12486;BME280;6307;46.804;11.580;2023-01-23T02:55:58;-20959.69;;;3.59;36.57
12486;BME280;6307;46.804;11.580;2023-01-23T02:58:25;-20963.47;;;3.71;36.70
12486;BME280;6307;46.804;11.580;2023-01-23T03:01:14;-20978.09;;;4.20;36.49
12486;BME280;6307;46.804;11.580;2023-01-23T03:03:40;-20982.00;;;4.33;35.93
12486;BME280;6307;46.804;11.580;2023-01-23T03:06:07;-20971.31;;;3.97;36.69
12486;BME280;6307;46.804;11.580;2023-01-23T03:08:35;-20956.84;;;3.49;36.93
12486;BME280;6307;46.804;11.580;2023-01-23T03:11:11;-20959.09;;;3.57;36.70
12486;BME280;6307;46.804;11.580;2023-01-23T03:13:37;-20956.25;;;3.47;37.61
12486;BME280;6307;46.804;11.580;2023-01-23T03:16:04;-20971.16;;;3.97;36.78
12486;BME280;6307;46.804;11.580;2023-01-23T03:18:31;-20969.34;;;3.91;36.35
12486;BME280;6307;46.804;11.580;2023-01-23T03:21:04;-20984.41;;;4.41;36.15
12486;BME280;6307;46.804;11.580;2023-01-23T03:23:32;-20974.91;;;4.09;36.26
12486;BME280;6307;46.804;11.580;2023-01-23T03:25:58;-20982.91;;;4.36;36.30
12486;BME280;6307;46.804;11.580;2023-01-23T03:28:25;-20968.75;;;3.89;36.68
12486;BME280;6307;46.804;11.580;2023-01-23T03:31:11;-20961.81;;;3.66;37.20
12486;BME280;6307;46.804;11.580;2023-01-23T03:33:39;-20931.38;;;2.65;38.25
12486;BME280;6307;46.804;11.580;2023-01-23T03:36:09;-20961.38;;;3.64;37.00
12486;BME280;6307;46.804;11.580;2023-01-23T03:38:36;-20937.69;;;2.86;37.69
12486;BME280;6307;46.804;11.580;2023-01-23T03:41:03;-20982.44;;;4.34;36.22
12486;BME280;6307;46.804;11.580;2023-01-23T03:43:48;-20979.00;;;4.23;35.98
12486;BME280;6307;46.804;11.580;2023-01-23T03:46:14;-20974.78;;;4.09;36.62
12486;BME280;6307;46.804;11.580;2023-01-23T03:48:41;-20958.03;;;3.53;37.34
12486;BME280;6307;46.804;11.580;2023-01-23T03:51:07;-20974.31;;;4.07;36.40
12486;BME280;6307;46.804;11.580;2023-01-23T03:53:33;-20979.44;;;4.24;35.73
12486;BME280;6307;46.804;11.580;2023-01-23T03:55:59;-20971.00;;;3.96;36.81
12486;BME280;6307;46.804;11.580;2023-01-23T03:58:26;-20990.13;;;4.60;35.80
12486;BME280;6307;46.804;11.580;2023-01-23T04:00:52;-20972.50;;;4.01;36.65
12486;BME280;6307;46.804;11.580;2023-01-23T04:03:19;-20974.03;;;4.06;36.59
12486;BME280;6307;46.804;11.580;2023-01-23T04:05:45;-20960.91;;;3.63;37.60
12486;BME280;6307;46.804;11.580;2023-01-23T04:08:11;-20953.69;;;3.39;37.65
12486;BME280;6307;46.804;11.580;2023-01-23T04:10:37;-20972.34;;;4.01;36.80
12486;BME280;6307;46.804;11.580;2023-01-23T04:13:03;-20956.09;;;3.47;37.28
12486;BME280;6307;46.804;11.580;2023-01-23T04:15:34;-20967.38;;;3.84;37.51
12486;BME280;6307;46.804;11.580;2023-01-23T04:18:00;-20959.56;;;3.58;37.72
12486;BME280;6307;46.804;11.580;2023-01-23T04:20:26;-20969.34;;;3.91;37.18
12486;BME280;6307;46.804;11.580;2023-01-23T04:22:52;-20934.69;;;2.76;38.73
12486;BME280;6307;46.804;11.580;2023-01-23T04:25:18;-20935.13;;;2.77;38.81
12486;BME280;6307;46.804;11.580;2023-01-23T04:27:45;-20949.16;;;3.24;38.58
12486;BME280;6307;46.804;11.580;2023-01-23T04:30:11;-20944.78;;;3.09;38.10
12486;BME280;6307;46.804;11.580;2023-01-23T04:32:38;-20954.72;;;3.42;38.51
12486;BME280;6307;46.804;11.580;2023-01-23T04:35:04;-20934.69;;;2.76;39.07
12486;BME280;6307;46.804;11.580;2023-01-23T04:37:30;-20964.06;;;3.73;37.91
12486;BME280;6307;46.804;11.580;2023-01-23T04:39:56;-20929.56;;;2.59;38.63
12486;BME280;6307;46.804;11.580;2023-01-23T04:42:22;-20939.81;;;2.93;38.57
12486;BME280;6307;46.804;11.580;2023-01-23T04:44:49;-20962.56;;;3.68;37.42
12486;BME280;6307;46.804;11.580;2023-01-23T04:47:15;-20942.81;;;3.03;38.11
12486;BME280;6307;46.804;11.580;2023-01-23T04:49:41;-20953.69;;;3.39;38.04
12486;BME280;6307;46.804;11.580;2023-01-23T04:52:07;-20960.75;;;3.62;38.15
12486;BME280;6307;46.804;11.580;2023-01-23T04:54:34;-20967.69;;;3.85;37.34
12486;BME280;6307;46.804;11.580;2023-01-23T04:57:00;-20980.81;;;4.29;37.09
12486;BME280;6307;46.804;11.580;2023-01-23T04:59:26;-20968.91;;;3.89;37.19
12486;BME280;6307;46.804;11.580;2023-01-23T05:01:52;-20959.84;;;3.59;38.29
12486;BME280;6307;46.804;11.580;2023-01-23T05:04:18;-20958.66;;;3.55;37.86
12486;BME280;6307;46.804;11.580;2023-01-23T05:06:44;-20961.97;;;3.66;37.89
12486;BME280;6307;46.804;11.580;2023-01-23T05:09:10;-20943.44;;;3.05;38.03
12486;BME280;6307;46.804;11.580;2023-01-23T05:11:37;-20942.81;;;3.03;38.81
12486;BME280;6307;46.804;11.580;2023-01-23T05:14:03;-20950.97;;;3.30;38.65
12486;BME280;6307;46.804;11.580;2023-01-23T05:16:30;-20951.88;;;3.33;38.12
12486;BME280;6307;46.804;11.580;2023-01-23T05:18:56;-20954.13;;;3.40;38.26
12486;BME280;6307;46.804;11.580;2023-01-23T05:21:22;-20961.50;;;3.65;37.90
12486;BME280;6307;46.804;11.580;2023-01-23T05:23:48;-20963.31;;;3.71;37.60
12486;BME280;6307;46.804;11.580;2023-01-23T05:26:14;-20954.88;;;3.43;37.85
12486;BME280;6307;46.804;11.580;2023-01-23T05:28:40;-20949.47;;;3.25;37.65
12486;BME280;6307;46.804;11.580;2023-01-23T05:31:06;-20971.47;;;3.98;36.77
12486;BME280;6307;46.804;11.580;2023-01-23T05:33:32;-20950.81;;;3.29;37.34
12486;BME280;6307;46.804;11.580;2023-01-23T05:35:59;-20982.44;;;4.34;36.12
12486;BME280;6307;46.804;11.580;2023-01-23T05:38:26;-20958.19;;;3.54;37.18
12486;BME280;6307;46.804;11.580;2023-01-23T05:40:52;-20964.53;;;3.75;36.94
12486;BME280;6307;46.804;11.580;2023-01-23T05:43:18;-20956.38;;;3.48;37.32
12486;BME280;6307;46.804;11.580;2023-01-23T05:45:44;-20969.03;;;3.90;37.45
12486;BME280;6307;46.804;11.580;2023-01-23T05:48:10;-20972.81;;;4.02;36.86
12486;BME280;6307;46.804;11.580;2023-01-23T05:50:36;-20981.09;;;4.30;36.67
12486;BME280;6307;46.804;11.580;2023-01-23T05:53:03;-20960.59;;;3.62;37.05
12486;BME280;6307;46.804;11.580;2023-01-23T05:55:29;-20966.03;;;3.80;37.43
12486;BME280;6307;46.804;11.580;2023-01-23T05:57:55;-20975.22;;;4.10;37.56
12486;BME280;6307;46.804;11.580;2023-01-23T06:00:21;-20977.47;;;4.18;36.39
12486;BME280;6307;46.804;11.580;2023-01-23T06:02:47;-20961.22;;;3.64;37.08
12486;BME280;6307;46.804;11.580;2023-01-23T06:05:13;-20953.06;;;3.37;38.23
12486;BME280;6307;46.804;11.580;2023-01-23T06:07:40;-20968.28;;;3.87;37.44
12486;BME280;6307;46.804;11.580;2023-01-23T06:10:06;-20963.78;;;3.72;37.35
12486;BME280;6307;46.804;11.580;2023-01-23T06:12:33;-20942.66;;;3.02;37.76
12486;BME280;6307;46.804;11.580;2023-01-23T06:14:59;-20943.44;;;3.05;38.06
12486;BME280;6307;46.804;11.580;2023-01-23T06:17:25;-20972.97;;;4.03;36.97
12486;BME280;6307;46.804;11.580;2023-01-23T06:19:51;-20965.88;;;3.79;37.50
12486;BME280;6307;46.804;11.580;2023-01-23T06:22:17;-20961.38;;;3.64;36.68
12486;BME280;6307;46.804;11.580;2023-01-23T06:24:43;-20961.50;;;3.65;37.71
12486;BME280;6307;46.804;11.580;2023-01-23T06:27:09;-20964.06;;;3.73;37.29
12486;BME280;6307;46.804;11.580;2023-01-23T06:29:36;-20946.75;;;3.16;37.89
12486;BME280;6307;46.804;11.580;2023-01-23T06:32:03;-20951.13;;;3.30;37.60
12486;BME280;6307;46.804;11.580;2023-01-23T06:34:29;-20960.31;;;3.61;37.65
12486;BME280;6307;46.804;11.580;2023-01-23T06:36:56;-20964.97;;;3.76;37.38
12486;BME280;6307;46.804;11.580;2023-01-23T06:39:22;-20974.78;;;4.09;37.01
12486;BME280;6307;46.804;11.580;2023-01-23T06:41:48;-20980.50;;;4.28;36.72
12486;BME280;6307;46.804;11.580;2023-01-23T06:44:14;-20965.59;;;3.78;37.36
12486;BME280;6307;46.804;11.580;2023-01-23T06:46:40;-20982.31;;;4.34;36.67
12486;BME280;6307;46.804;11.580;2023-01-23T06:49:06;-20959.69;;;3.59;37.53
12486;BME280;6307;46.804;11.580;2023-01-23T06:51:32;-20966.63;;;3.82;36.39
12486;BME280;6307;46.804;11.580;2023-01-23T06:53:58;-20977.19;;;4.17;36.94
12486;BME280;6307;46.804;11.580;2023-01-23T06:56:24;-20970.56;;;3.95;36.52
12486;BME280;6307;46.804;11.580;2023-01-23T06:58:51;-20978.38;;;4.21;37.15
12486;BME280;6307;46.804;11.580;2023-01-23T07:01:17;-20984.72;;;4.42;36.34
12486;BME280;6307;46.804;11.580;2023-01-23T07:03:44;-20973.56;;;4.05;36.97
12486;BME280;6307;46.804;11.580;2023-01-23T07:06:12;-20991.78;;;4.65;36.18
12486;BME280;6307;46.804;11.580;2023-01-23T07:08:40;-20991.94;;;4.66;35.90
12486;BME280;6307;46.804;11.580;2023-01-23T07:11:06;-20965.59;;;3.78;36.38
12486;BME280;6307;46.804;11.580;2023-01-23T07:13:33;-20962.56;;;3.68;36.32
12486;BME280;6307;46.804;11.580;2023-01-23T07:16:00;-20955.94;;;3.46;37.53
12486;BME280;6307;46.804;11.580;2023-01-23T07:18:26;-20966.19;;;3.80;37.71
12486;BME280;6307;46.804;11.580;2023-01-23T07:20:54;-20989.09;;;4.56;36.06
12486;BME280;6307;46.804;11.580;2023-01-23T07:23:21;-20978.53;;;4.21;36.97
12486;BME280;6307;46.804;11.580;2023-01-23T07:25:48;-21002.50;;;5.01;35.54
12486;BME280;6307;46.804;11.580;2023-01-23T07:28:14;-20991.78;;;4.65;36.16
12486;BME280;6307;46.804;11.580;2023-01-23T07:30:40;-20977.78;;;4.19;36.51
12486;BME280;6307;46.804;11.580;2023-01-23T07:33:06;-20972.22;;;4.00;36.69
12486;BME280;6307;46.804;11.580;2023-01-23T07:35:32;-20968.16;;;3.87;37.46
12486;BME280;6307;46.804;11.580;2023-01-23T07:37:59;-20948.84;;;3.23;37.99
12486;BME280;6307;46.804;11.580;2023-01-23T07:40:25;-20986.81;;;4.49;36.77
12486;BME280;6307;46.804;11.580;2023-01-23T07:42:51;-20966.03;;;3.80;36.67
12486;BME280;6307;46.804;11.580;2023-01-23T07:45:17;-20981.56;;;4.31;36.15
12486;BME280;6307;46.804;11.580;2023-01-23T07:47:43;-20970.72;;;3.95;36.86
12486;BME280;6307;46.804;11.580;2023-01-23T07:50:10;-20967.84;;;3.86;37.46
12486;BME280;6307;46.804;11.580;2023-01-23T07:52:37;-20996.47;;;4.81;36.06
12486;BME280;6307;46.804;11.580;2023-01-23T07:55:04;-20989.69;;;4.58;36.48
12486;BME280;6307;46.804;11.580;2023-01-23T07:57:30;-20987.72;;;4.52;35.86
12486;BME280;6307;46.804;11.580;2023-01-23T07:59:58;-20979.75;;;4.25;35.82
12486;BME280;6307;46.804;11.580;2023-01-23T08:02:24;-21017.25;;;5.50;34.34
12486;BME280;6307;46.804;11.580;2023-01-23T08:04:50;-21016.34;;;5.47;34.60
12486;BME280;6307;46.804;11.580;2023-01-23T08:07:16;-20986.38;;;4.47;35.56
12486;BME280;6307;46.804;11.580;2023-01-23T08:09:42;-20986.38;;;4.47;35.98
12486;BME280;6307;46.804;11.580;2023-01-23T08:12:10;-21008.06;;;5.19;35.41
12486;BME280;6307;46.804;11.580;2023-01-23T08:14:37;-20986.53;;;4.48;35.67
12486;BME280;6307;46.804;11.580;2023-01-23T08:17:04;-21011.22;;;5.30;35.19
12486;BME280;6307;46.804;11.580;2023-01-23T08:19:30;-21004.44;;;5.07;35.77
12486;BME280;6307;46.804;11.580;2023-01-23T08:21:56;-21001.72;;;4.98;35.89
12486;BME280;6307;46.804;11.580;2023-01-23T08:24:22;-20980.03;;;4.26;36.55
12486;BME280;6307;46.804;11.580;2023-01-23T08:26:48;-21005.81;;;5.12;35.21
12486;BME280;6307;46.804;11.580;2023-01-23T08:29:14;-21013.94;;;5.39;35.12
12486;BME280;6307;46.804;11.580;2023-01-23T08:31:40;-21011.22;;;5.30;35.08
12486;BME280;6307;46.804;11.580;2023-01-23T08:34:06;-21010.00;;;5.26;35.00
12486;BME280;6307;46.804;11.580;2023-01-23T08:36:32;-21017.69;;;5.51;34.73
12486;BME280;6307;46.804;11.580;2023-01-23T08:38:58;-21027.63;;;5.84;34.94
12486;BME280;6307;46.804;11.580;2023-01-23T08:41:24;-21034.69;;;6.08;34.53
12486;BME280;6307;46.804;11.580;2023-01-23T08:43:51;-21029.59;;;5.91;34.23
12486;BME280;6307;46.804;11.580;2023-01-23T08:46:17;-21027.19;;;5.83;34.62
12486;BME280;6307;46.804;11.580;2023-01-23T08:48:43;-21006.53;;;5.14;36.04
12486;BME280;6307;46.804;11.580;2023-01-23T08:51:11;-21034.41;;;6.07;34.84
12486;BME280;6307;46.804;11.580;2023-01-23T08:53:38;-21055.91;;;6.78;33.50
12486;BME280;6307;46.804;11.580;2023-01-23T08:56:09;-21040.88;;;6.28;34.14
12486;BME280;6307;46.804;11.580;2023-01-23T08:58:39;-21030.94;;;5.95;35.14
12486;BME280;6307;46.804;11.580;2023-01-23T09:01:13;-21019.94;;;5.59;34.61
12486;BME280;6307;46.804;11.580;2023-01-23T09:03:40;-21029.88;;;5.92;34.81
12486;BME280;6307;46.804;11.580;2023-01-23T09:06:06;-21039.66;;;6.24;34.46
12486;BME280;6307;46.804;11.580;2023-01-23T09:08:35;-21037.72;;;6.18;34.11
12486;BME280;6307;46.804;11.580;2023-01-23T09:11:07;-21037.84;;;6.18;34.56
12486;BME280;6307;46.804;11.580;2023-01-23T09:13:34;-21041.31;;;6.30;34.49
12486;BME280;6307;46.804;11.580;2023-01-23T09:16:01;-21047.63;;;6.51;33.96
12486;BME280;6307;46.804;11.580;2023-01-23T09:18:28;-21035.91;;;6.12;34.13
12486;BME280;6307;46.804;11.580;2023-01-23T09:20:55;-21042.22;;;6.33;34.30
12486;BME280;6307;46.804;11.580;2023-01-23T09:23:21;-21043.13;;;6.36;34.29
12486;BME280;6307;46.804;11.580;2023-01-23T09:25:48;-21041.63;;;6.31;34.84
12486;BME280;6307;46.804;11.580;2023-01-23T09:28:14;-21054.84;;;6.75;33.62
12486;BME280;6307;46.804;11.580;2023-01-23T09:30:40;-21049.28;;;6.56;34.14
12486;BME280;6307;46.804;11.580;2023-01-23T09:33:06;-21041.91;;;6.32;34.27
12486;BME280;6307;46.804;11.580;2023-01-23T09:35:33;-21030.94;;;5.95;34.58
12486;BME280;6307;46.804;11.580;2023-01-23T09:38:00;-21061.47;;;6.97;33.72
12486;BME280;6307;46.804;11.580;2023-01-23T09:40:36;-21056.81;;;6.81;34.04
12486;BME280;6307;46.804;11.580;2023-01-23T09:43:15;-21056.66;;;6.81;34.00
12486;BME280;6307;46.804;11.580;2023-01-23T09:49:02;-21056.66;;;6.81;33.88
12486;BME280;6307;46.804;11.580;2023-01-23T09:51:55;-21048.38;;;6.53;34.35
12486;BME280;6307;46.804;11.580;2023-01-23T09:54:45;-21052.28;;;6.66;34.30
12486;BME280;6307;46.804;11.580;2023-01-23T09:57:47;-21071.53;;;7.30;33.27
12486;BME280;6307;46.804;11.580;2023-01-23T10:00:26;-21058.31;;;6.86;33.98
12486;BME280;6307;46.804;11.580;2023-01-23T10:03:00;-21039.66;;;6.24;34.99
12486;BME280;6307;46.804;11.580;2023-01-23T10:12:28;-21058.16;;;6.86;34.12
12486;BME280;6307;46.804;11.580;2023-01-23T10:17:47;-21068.09;;;7.18;33.81
12486;BME280;6307;46.804;11.580;2023-01-23T10:21:01;-21079.81;;;7.57;33.83
12486;BME280;6307;46.804;11.580;2023-01-23T10:26:37;-21082.50;;;7.66;33.34
12486;BME280;6307;46.804;11.580;2023-01-23T10:31:57;-21080.88;;;7.61;33.14
12486;BME280;6307;46.804;11.580;2023-01-23T10:37:19;-21099.78;;;8.24;33.04
12486;BME280;6307;46.804;11.580;2023-01-23T10:40:04;-21098.75;;;8.20;33.14
12486;BME280;6307;46.804;11.580;2023-01-23T10:42:36;-21111.66;;;8.63;32.19
12486;BME280;6307;46.804;11.580;2023-01-23T10:45:04;-21115.72;;;8.77;32.09
12486;BME280;6307;46.804;11.580;2023-01-23T10:47:41;-21129.69;;;9.23;32.11
12486;BME280;6307;46.804;11.580;2023-01-23T10:50:12;-21105.34;;;8.42;32.46
12486;BME280;6307;46.804;11.580;2023-01-23T10:52:42;-21093.47;;;8.03;33.00
12486;BME280;6307;46.804;11.580;2023-01-23T10:57:47;-21128.63;;;9.20;31.85
12486;BME280;6307;46.804;11.580;2023-01-23T11:00:35;-21126.69;;;9.13;31.80
12486;BME280;6307;46.804;11.580;2023-01-23T11:03:37;-21118.13;;;8.85;31.66
12486;BME280;6307;46.804;11.580;2023-01-23T11:06:15;-21138.38;;;9.52;31.51
12486;BME280;6307;46.804;11.580;2023-01-23T11:09:02;-21117.22;;;8.82;32.25
12486;BME280;6307;46.804;11.580;2023-01-23T11:11:42;-21129.53;;;9.23;32.07
12486;BME280;6307;46.804;11.580;2023-01-23T11:14:12;-21136.72;;;9.47;31.66
12486;BME280;6307;46.804;11.580;2023-01-23T11:16:41;-21139.59;;;9.56;31.59
12486;BME280;6307;46.804;11.580;2023-01-23T11:24:18;-21117.22;;;8.82;31.95
12486;BME280;6307;46.804;11.580;2023-01-23T11:27:14;-21134.03;;;9.38;31.63
12486;BME280;6307;46.804;11.580;2023-01-23T11:32:28;-21125.31;;;9.09;32.09
12486;BME280;6307;46.804;11.580;2023-01-23T11:38:05;-21104.31;;;8.39;32.91
12486;BME280;6307;46.804;11.580;2023-01-23T11:40:33;-21116.78;;;8.80;32.82
12486;BME280;6307;46.804;11.580;2023-01-23T11:43:00;-21127.13;;;9.15;32.34
12486;BME280;6307;46.804;11.580;2023-01-23T11:45:43;-21131.63;;;9.30;32.32
12486;BME280;6307;46.804;11.580;2023-01-23T11:54:19;-21128.34;;;9.19;31.83
12486;BME280;6307;46.804;11.580;2023-01-23T11:57:06;-21138.84;;;9.54;31.94
12486;BME280;6307;46.804;11.580;2023-01-23T12:02:54;-21128.03;;;9.18;32.35
12486;BME280;6307;46.804;11.580;2023-01-23T12:08:46;-21125.47;;;9.09;32.46
12486;BME280;6307;46.804;11.580;2023-01-23T12:11:33;-21140.19;;;9.58;31.79
12486;BME280;6307;46.804;11.580;2023-01-23T12:23:18;-21133.13;;;9.35;32.50
12486;BME280;6307;46.804;11.580;2023-01-23T12:29:18;-21130.13;;;9.25;33.30
12486;BME280;6307;46.804;11.580;2023-01-23T12:32:34;-21122.31;;;8.99;33.35
12486;BME280;6307;46.804;11.580;2023-01-23T12:35:34;-21160.00;;;10.24;32.12
12486;BME280;6307;46.804;11.580;2023-01-23T12:39:00;-21154.31;;;10.05;32.11
12486;BME280;6307;46.804;11.580;2023-01-23T12:41:37;-21160.44;;;10.26;32.02
12486;BME280;6307;46.804;11.580;2023-01-23T12:44:23;-21144.84;;;9.74;31.89
12486;BME280;6307;46.804;11.580;2023-01-23T12:49:56;-21156.25;;;10.12;31.86
12486;BME280;6307;46.804;11.580;2023-01-23T12:52:37;-21138.53;;;9.53;32.07
12486;BME280;6307;46.804;11.580;2023-01-23T12:55:20;-21144.38;;;9.72;32.91
12486;BME280;6307;46.804;11.580;2023-01-23T12:57:56;-21137.94;;;9.51;32.84
12486;BME280;6307;46.804;11.580;2023-01-23T13:08:35;-21161.03;;;10.28;32.27
12486;BME280;6307;46.804;11.580;2023-01-23T13:11:41;-21155.03;;;10.08;32.06
12486;BME280;6307;46.804;11.580;2023-01-23T13:14:44;-21146.78;;;9.80;32.92
12486;BME280;6307;46.804;11.580;2023-01-23T13:17:29;-21164.78;;;10.40;31.99
12486;BME280;6307;46.804;11.580;2023-01-23T13:20:21;-21168.09;;;10.51;31.86
12486;BME280;6307;46.804;11.580;2023-01-23T13:23:36;-21171.69;;;10.63;31.60
12486;BME280;6307;46.804;11.580;2023-01-23T13:31:37;-21150.84;;;9.94;32.16
12486;BME280;6307;46.804;11.580;2023-01-23T13:36:46;-21169.91;;;10.57;31.75
12486;BME280;6307;46.804;11.580;2023-01-23T13:41:43;-21114.97;;;8.74;33.70
12486;BME280;6307;46.804;11.580;2023-01-23T13:44:25;-21123.53;;;9.03;33.83
12486;BME280;6307;46.804;11.580;2023-01-23T13:50:00;-21145.59;;;9.76;32.89
12486;BME280;6307;46.804;11.580;2023-01-23T13:52:45;-21168.53;;;10.53;32.34
12486;BME280;6307;46.804;11.580;2023-01-23T13:55:44;-21166.75;;;10.47;32.27
12486;BME280;6307;46.804;11.580;2023-01-23T13:58:30;-21167.50;;;10.49;32.31
12486;BME280;6307;46.804;11.580;2023-01-23T14:04:12;-21192.69;;;11.33;31.32
12486;BME280;6307;46.804;11.580;2023-01-23T14:07:22;-21143.19;;;9.68;32.41
12486;BME280;6307;46.804;11.580;2023-01-23T14:10:21;-21163.16;;;10.35;32.51
12486;BME280;6307;46.804;11.580;2023-01-23T14:12:47;-21168.09;;;10.51;32.18
12486;BME280;6307;46.804;11.580;2023-01-23T14:20:39;-21160.28;;;10.25;32.23
12486;BME280;6307;46.804;11.580;2023-01-23T14:23:19;-21163.16;;;10.35;32.17
12486;BME280;6307;46.804;11.580;2023-01-23T14:25:54;-21164.94;;;10.41;32.33
12486;BME280;6307;46.804;11.580;2023-01-23T14:28:20;-21169.28;;;10.55;31.99
12486;BME280;6307;46.804;11.580;2023-01-23T14:30:59;-21157.91;;;10.17;33.29
12486;BME280;6307;46.804;11.580;2023-01-23T14:33:28;-21151.59;;;9.96;32.99
12486;BME280;6307;46.804;11.580;2023-01-23T14:36:05;-21170.94;;;10.61;32.51
12486;BME280;6307;46.804;11.580;2023-01-23T14:38:38;-21151.28;;;9.95;32.85
12486;BME280;6307;46.804;11.580;2023-01-23T14:41:05;-21164.50;;;10.39;33.49
12486;BME280;6307;46.804;11.580;2023-01-23T14:43:33;-21174.69;;;10.73;33.50
12486;BME280;6307;46.804;11.580;2023-01-23T14:46:06;-21156.25;;;10.12;33.33
12486;BME280;6307;46.804;11.580;2023-01-23T14:48:41;-21171.09;;;10.61;33.24
12486;BME280;6307;46.804;11.580;2023-01-23T14:51:24;-21180.38;;;10.92;32.30
12486;BME280;6307;46.804;11.580;2023-01-23T14:54:02;-21164.78;;;10.40;32.58
12486;BME280;6307;46.804;11.580;2023-01-23T14:56:39;-21166.44;;;10.46;32.31
12486;BME280;6307;46.804;11.580;2023-01-23T14:59:07;-21183.09;;;11.01;32.01
12486;BME280;6307;46.804;11.580;2023-01-23T15:02:01;-21176.63;;;10.80;32.86
12486;BME280;6307;46.804;11.580;2023-01-23T15:05:26;-21190.28;;;11.25;31.52
12486;BME280;6307;46.804;11.580;2023-01-23T15:08:03;-21179.19;;;10.88;32.39
12486;BME280;6307;46.804;11.580;2023-01-23T15:13:35;-21191.63;;;11.30;31.95
12486;BME280;6307;46.804;11.580;2023-01-23T15:16:20;-21169.59;;;10.56;31.88